Detalii statie TRANSAVIA GRUP [00001CF7]

Toti senzorii

Date Temperatura solului [C]Precipitatii [mm]Voltaj baterie [mV]HC Air temperature [C]HC Relative humidity [%]Punctul de roua [C]
medieminmaxsumaultimamedieminmaxmediemediemin
2019-10-19 23:00:00 11.4 11.3 11.6 0 6874 7.29 6.68 8.18 0 0 0
2019-10-20 00:00:00 11.2 11.2 11.3 0 6864 6.76 6.01 7.33 0 0 0
2019-10-20 01:00:00 11.1 11 11.3 0 6854 5.75 5.23 6.53 0 0 0
2019-10-20 02:00:00 11 10.8 11.1 0 6834 5.22 4.7 5.9 0 0 0
2019-10-20 03:00:00 10.8 10.8 11 0 6826 4.6 4.43 5.04 0 0 0
2019-10-20 04:00:00 10.7 10.5 10.9 0 6816 3.99 3.53 4.47 0 0 0
2019-10-20 05:00:00 10.6 10.5 10.8 0 6806 3.73 3.46 3.99 0 0 0
2019-10-20 06:00:00 10.4 10.3 10.5 0 6796 3.93 3.43 4.17 0 0 0
2019-10-20 07:00:00 10.2 10.2 10.4 0 6786 3.9 3.2 5.15 0 0 0
2019-10-20 08:00:00 10.1 10.1 10.3 0 6864 4.8 3.68 6.85 0 0 0
2019-10-20 09:00:00 10 9.9 10.2 0.2 7236 8.91 6.9 10.79 0 0 0
2019-10-20 10:00:00 10 9.9 10.2 0 7216 13.87 11.33 17.38 0 0 0
2019-10-20 11:00:00 10 9.9 10.3 0 7274 19.53 16.88 22.53 0 0 0
2019-10-20 12:00:00 10.2 10.1 10.4 0 7304 22.29 21.9 23.59 0 0 0
2019-10-20 13:00:00 10.5 10.3 10.8 0 7304 23.89 23.08 24.78 1.21 0
2019-10-20 14:00:00 10.8 10.7 11 0 7304 25.9 24.69 27.13 1.74 -1.3 0
2019-10-20 15:00:00 11.1 10.9 11.3 0 7304 26.57 25.37 27.57 0.47 -4.6 0
2019-10-20 16:00:00 11.4 11.3 11.7 0 7050 26.24 24.82 26.94 3.54 -6.9 0
2019-10-20 17:00:00 11.7 11.5 11.8 0 6952 23.59 22.1 24.52 26.86 2.2 -5.6
2019-10-20 18:00:00 11.8 11.7 11.9 0 6884 17.66 14.27 21.01 51.15 6.4 -6.7
2019-10-20 19:00:00 11.8 11.7 11.9 0 6884 12.21 11.19 13.96 10.55 0
2019-10-20 20:00:00 11.7 11.7 11.8 0 6864 10.51 9.36 11.67 4.98 0
2019-10-20 21:00:00 11.6 11.5 11.9 0 6874 8.96 8.36 9.16 3.14 -7.7 0
2019-10-20 22:00:00 11.5 11.4 11.7 0 6854 7.56 7.01 8.36 0.46 0
2019-10-20 23:00:00 11.3 11.2 11.5 0 6844 6.78 6.08 7.77 1.44 0
2019-10-21 00:00:00 11.2 11.1 11.4 0 6844 5.87 5.35 6.53 0 0 0
2019-10-21 01:00:00 11.1 11 11.2 0 6826 5.48 4.92 6.06 0 0 0
2019-10-21 02:00:00 10.9 10.9 11.1 0 6816 4.62 4.08 5.38 0 0 0
2019-10-21 03:00:00 10.8 10.7 11 0 6806 4.19 3.71 4.71 0 0 0
2019-10-21 04:00:00 10.6 10.6 10.8 0 6796 3.71 3.28 4.66 0 0 0
2019-10-21 05:00:00 10.4 10.3 10.6 0 6786 3.11 2.78 3.8 0 0 0
2019-10-21 06:00:00 10.3 10.2 10.4 0 6786 2.74 2.31 3.34 0 0 0
2019-10-21 07:00:00 10.1 10.1 10.3 0 6776 2.42 1.98 3.29 0 0 0
2019-10-21 08:00:00 10 10 10.1 0 6854 3.04 2.01 4.64 0 0 0
2019-10-21 09:00:00 9.8 9.6 10 0 7226 7.44 5.14 9.88 0 0 0
2019-10-21 10:00:00 9.8 9.8 9.9 0 7254 13.2 10.21 15.64 0 0 0
2019-10-21 11:00:00 9.8 9.8 9.9 0 7284 18.9 16.07 20.68 0 0 0
2019-10-21 12:00:00 9.9 9.8 10.1 0 7304 21.95 20.67 23.27 0 0 0
2019-10-21 13:00:00 10.2 10 10.4 0 7304 24.59 23.48 25.96 0 0 0
2019-10-21 14:00:00 10.5 10.3 10.8 0 7304 26.08 25.31 26.84 0 0 0
2019-10-21 15:00:00 10.9 10.7 11.2 0 7304 26.72 25.62 27.47 0 0 0
2019-10-21 16:00:00 11.2 11 11.3 0 7030 26.41 24.89 27.58 0 0 0
2019-10-21 17:00:00 11.4 11.3 11.6 0 6962 22.62 20.61 24.54 0 0 0
2019-10-21 18:00:00 11.5 11.4 11.6 0 6914 16.69 13.92 20.18 1 -3.9 0